Ovid, New York
Current Conditions -  °F | °C
As of 3:53 AM on Saturday 29 Nov 2014 (Local Time) from KPEO Reporting Station
Overcast Overcast  
Wind Chill: 15°   Ceiling: 8500
Heat Index: 24°   Visibility: 10mi
Dew Point: 15°   Wind: 8mph
Humidity: 69%   Direction: 190°S
Pressure: 30.18"   Gusts: NA
Location:  42.68°N, 76.82°W
Report Text: KPEO 290853Z AUTO 19007KT 10SM SCT034 OVC085 M04/M09 A3018 RMK AO2 SLP236 T10441094 58007
Loading
Personal Weather Stations






























Interactive Weather Map New forecast layout! Learn more

10-Day Weather Forecast

Advertisements
Track Severe Weather on mobile